Quick Links (Output Below):   Max & Min Temps   /   Climate Reports   /   Zone Forecasts
River Forecasts   /   Forestry Forecasts   /   Aviation Forecasts   /   Radars   /   Features

Terminal Aerodrome Forecast (Highfill)

Pick a Site:
Arkadelphia | El Dorado | Fayetteville | Fort Smith | Harrison | Highfill | Hot Springs | Jonesboro
Little Rock | Monticello | Mountain Home | Pine Bluff | Texarkana
 Forecast 

KXNA 250520Z 2506/2606 20003KT P6SM SKC
     FM251500 23005KT P6SM SKC=


 Latest METARs (Observations) 
How to Decode METARs
10Z KXNA 250953Z AUTO 21004KT 9SM CLR 16/14 A3009 RMK AO2 SLP178
         T01560139
         
09Z KXNA 250853Z AUTO 21005KT 7SM CLR 15/14 A3008 RMK AO2 SLP176
         T01500139 53000
         
08Z KXNA 250753Z AUTO 20004KT 5SM BR CLR 14/13 A3008 RMK AO2 SLP174
         T01440133
         
07Z KXNA 250653Z AUTO 20005KT 7SM CLR 15/14 A3008 RMK AO2 SLP174
         T01500139
         
06Z KXNA 250553Z AUTO 20004KT 8SM CLR 15/14 A3008 RMK AO2 SLP175
         T01500139 10194 20150 402330089 58002
         
05Z KXNA 250453Z AUTO 20004KT 7SM CLR 16/14 A3008 RMK AO2 SLP178
         T01560144
         
04Z KXNA 250353Z 20003KT 9SM CLR 16/14 A3009 RMK AO2 SLP184
         T01560144
         
03Z KXNA 250253Z 20005KT 10SM CLR 16/15 A3008 RMK AO2 SLP181 T01610150
         53003
         
02Z KXNA 250153Z 19003KT 10SM CLR 17/15 A3008 RMK AO2 SLP181
         T01670150
         
01Z KXNA 250053Z 19004KT 10SM CLR 18/16 A3008 RMK AO2 SLP180
         T01780156
         
***** Today's Observations (Above) *****


Back to Main Page
http://www.srh.noaa.gov/lzk/qfcst.php

USA.gov is the U.S. government's official web portal to all federal, state and local government web resources and services.